KHAO

Butler Co Regional-Hogan Field Airport

Hamilton, Ohio, USA
METAR KHAO 241153Z AUTO 07007KT 8SM OVC009 08/07 A3014 RMK AO2 RAB1057E42 SLP208 P0000 60003 70015 T00830072 10111 20083 58005
Observed Flight Rules
Feb-24 @ 11:53 UTC (29 minutes ago) Instrument Flight Rules
Wind Visibility Clouds
70° at 7 knots 8 miles
  • Overcast at 900' AGL
Temperatures Readings Precipitation
Current 8°C / 46°F
Dewpoint 7°C / 45°F
Humidity 93%
Altimeter 30.14" Hg
Pressure 1020.8 hPa
Elevation 188
Current Rain 0.005
METAR KHAO 241153Z AUTO 07007KT 8SM OVC009 08/07 A3014 RMK AO2 RAB1057E42 SLP208 P0000 60003 70015 T00830072 10111 20083 58005
Observed Flight Rules
Feb-24 @ 11:53 UTC
(29 minutes ago)
IFR
Wind Visibility
70° at 7 knots 8 miles
Clouds
  • Overcast at 900' AGL
Temperature Dewpoint
8°C / 46°F 7°C / 45°F
Humidity Altimeter Pressure
93% 30.14" Hg 1020.8 hPa
Current Rain
0.005